Time;durP1;ratioP1;P1;durP2;ratioP2;P2;SDS_P1;SDS_P2;PMS_P1;PMS_P2;Temp;Humidity;BMP_temperature;BMP_pressure;BME280_temperature;BME280_humidity;BME280_pressure;Samples;Min_cycle;Max_cycle;Signal;HPM_P1;HPM_P2
2022/04/04 00:01:39;;;;;;;;;;;;;;;0.10;57.85;99227.44;8395943;28;20158;-70
2022/04/04 00:05:39;;;;;;;;;;;;;;;0.27;58.21;99217.66;8412062;28;20162;-70
2022/04/04 00:09:40;;;;;;;;;;;;;;;0.23;58.47;99219.19;8396940;28;19920;-70
2022/04/04 00:13:41;;;;;;;;;;;;;;;0.26;58.73;99221.38;8397160;28;19988;-69
2022/04/04 00:17:42;;;;;;;;;;;;;;;0.34;58.60;99218.31;8397149;28;20021;-69
2022/04/04 00:21:42;;;;;;;;;;;;;;;0.43;58.07;99213.41;8396699;28;19935;-69
2022/04/04 00:25:44;;;;;;;;;;;;;;;0.13;58.68;99208.38;8396611;28;19926;-69
2022/04/04 00:29:46;;;;;;;;;;;;;;;-0.15;59.91;99205.72;8394512;28;19921;-69
2022/04/04 00:33:47;;;;;;;;;;;;;;;-0.17;59.95;99197.19;8396866;28;19927;-70
2022/04/04 00:37:47;;;;;;;;;;;;;;;-0.32;60.74;99205.69;8395842;28;20044;-69
2022/04/04 00:41:48;;;;;;;;;;;;;;;-0.31;61.27;99211.75;8395432;28;19920;-70
2022/04/04 00:45:50;;;;;;;;;;;;;;;-0.33;61.43;99208.56;8358703;28;20389;-70
2022/04/04 00:49:51;;;;;;;;;;;;;;;-0.38;61.99;99205.81;8394328;28;19928;-69
2022/04/04 00:53:52;;;;;;;;;;;;;;;-0.24;62.18;99199.19;8409328;28;19997;-70
2022/04/04 00:57:53;;;;;;;;;;;;;;;-0.07;61.35;99192.06;8394089;28;19924;-69
2022/04/04 01:01:53;;;;;;;;;;;;;;;0.00;61.54;99187.44;8393699;28;20206;-70
2022/04/04 01:05:57;;;;;;;;;;;;;;;0.16;61.07;99181.31;8394327;28;20040;-71
2022/04/04 01:09:58;;;;;;;;;;;;;;;0.23;61.38;99182.00;8395233;28;19920;-70
2022/04/04 01:13:59;;;;;;;;;;;;;;;0.30;61.40;99172.03;8394570;28;19963;-70
2022/04/04 01:18:00;;;;;;;;;;;;;;;0.42;61.29;99164.78;8394662;28;19967;-70
2022/04/04 01:22:02;;;;;;;;;;;;;;;0.46;61.64;99169.63;8394805;28;20017;-70
2022/04/04 01:26:03;;;;;;;;;;;;;;;0.55;61.41;99168.16;8393937;28;19920;-69
2022/04/04 01:30:04;;;;;;;;;;;;;;;0.64;61.66;99156.06;8394312;28;20363;-69
2022/04/04 01:34:05;;;;;;;;;;;;;;;0.67;61.44;99155.59;8394054;28;20372;-69
2022/04/04 01:38:06;;;;;;;;;;;;;;;0.65;61.79;99152.38;8393308;28;19973;-69
2022/04/04 01:42:07;;;;;;;;;;;;;;;0.66;61.54;99148.66;8408811;28;20326;-69
2022/04/04 01:46:27;;;;;;;;;;;;;;;0.73;61.53;99149.31;8392984;28;20030;-70
2022/04/04 01:50:28;;;;;;;;;;;;;;;0.82;61.49;99142.53;8394053;28;19928;-69
2022/04/04 01:54:29;;;;;;;;;;;;;;;0.80;61.78;99139.28;8395414;28;19920;-70
2022/04/04 01:58:30;;;;;;;;;;;;;;;0.80;61.82;99133.97;8394554;28;19920;-70
2022/04/04 02:02:30;;;;;;;;;;;;;;;0.83;61.95;99138.81;8394749;28;20030;-70
2022/04/04 02:06:33;;;;;;;;;;;;;;;0.93;61.88;99138.16;8395219;28;19920;-70
2022/04/04 02:10:34;;;;;;;;;;;;;;;0.94;61.62;99129.13;8394905;28;19981;-69
2022/04/04 02:14:34;;;;;;;;;;;;;;;0.90;62.21;99134.13;8394806;28;20381;-70
2022/04/04 02:18:35;;;;;;;;;;;;;;;0.83;62.66;99133.50;8395138;28;19962;-70
2022/04/04 02:22:37;;;;;;;;;;;;;;;0.89;62.61;99132.53;8375991;28;19920;-69
2022/04/04 02:26:38;;;;;;;;;;;;;;;0.90;63.08;99134.13;8394566;28;19943;-70
2022/04/04 02:30:40;;;;;;;;;;;;;;;0.92;63.06;99121.41;8395072;28;20435;-70
2022/04/04 02:34:40;;;;;;;;;;;;;;;0.95;63.09;99126.25;8394908;28;20018;-69
2022/04/04 02:38:41;;;;;;;;;;;;;;;0.96;63.42;99127.81;8392394;28;19927;-70
2022/04/04 02:42:42;;;;;;;;;;;;;;;0.93;63.33;99117.69;8394448;28;21262;-70
2022/04/04 02:46:43;;;;;;;;;;;;;;;0.86;64.10;99114.41;8394273;28;19968;-70
2022/04/04 02:50:44;;;;;;;;;;;;;;;0.97;63.90;99118.81;8393413;28;20264;-69
2022/04/04 02:54:45;;;;;;;;;;;;;;;0.89;64.48;99113.94;8394869;28;19924;-70
2022/04/04 02:58:45;;;;;;;;;;;;;;;0.85;64.64;99120.75;8394057;28;20042;-70
2022/04/04 03:02:46;;;;;;;;;;;;;;;0.85;65.00;99115.44;8394436;28;19927;-70
2022/04/04 03:06:47;;;;;;;;;;;;;;;0.95;64.90;99115.59;8394114;28;19931;-70
2022/04/04 03:10:48;;;;;;;;;;;;;;;0.86;65.10;99111.75;8393859;28;19955;-71
2022/04/04 03:14:49;;;;;;;;;;;;;;;0.88;65.89;99120.28;8394712;28;19920;-70
2022/04/04 03:18:50;;;;;;;;;;;;;;;1.00;67.02;99123.66;8400537;28;19920;-70
2022/04/04 03:22:51;;;;;;;;;;;;;;;0.86;70.58;99111.75;8400369;28;20019;-70
2022/04/04 03:26:52;;;;;;;;;;;;;;;0.70;74.55;99112.56;8399600;28;20067;-71
2022/04/04 03:30:53;;;;;;;;;;;;;;;0.57;76.52;99112.94;8399220;28;20346;-71
2022/04/04 03:34:54;;;;;;;;;;;;;;;0.35;78.14;99121.63;8400360;28;19920;-70
2022/04/04 03:38:54;;;;;;;;;;;;;;;0.28;80.26;99112.22;8399972;28;19943;-70
2022/04/04 03:42:56;;;;;;;;;;;;;;;0.18;80.99;99112.84;8399567;28;19954;-69
2022/04/04 03:46:56;;;;;;;;;;;;;;;0.13;82.00;99107.47;8398075;28;20007;-69
2022/04/04 03:50:57;;;;;;;;;;;;;;;0.21;83.14;99109.69;8399680;28;20003;-69
2022/04/04 03:54:58;;;;;;;;;;;;;;;0.15;83.01;99102.72;8399505;28;20338;-70
2022/04/04 03:58:59;;;;;;;;;;;;;;;0.15;83.71;99100.06;8399705;28;19927;-70
2022/04/04 04:02:59;;;;;;;;;;;;;;;0.15;83.30;99092.09;8399139;28;19920;-71
2022/04/04 04:07:00;;;;;;;;;;;;;;;0.26;82.58;99101.03;8398052;28;20410;-70
2022/04/04 04:11:01;;;;;;;;;;;;;;;0.24;82.09;99098.63;8399422;28;20011;-70
2022/04/04 04:15:03;;;;;;;;;;;;;;;0.25;81.04;99100.22;8398956;28;19973;-70
2022/04/04 04:20:19;;;;;;;;;;;;;;;0.00;80.99;99097.16;8398072;28;19920;-70
2022/04/04 04:23:25;;;;;;;;;;;;;;;-0.04;81.09;99090.72;8399005;28;19920;-70
2022/04/04 04:27:25;;;;;;;;;;;;;;;-0.09;80.20;99087.97;8397666;28;20343;-70
2022/04/04 04:31:26;;;;;;;;;;;;;;;-0.13;79.60;99086.84;8394653;28;20030;-70
2022/04/04 04:35:27;;;;;;;;;;;;;;;-0.05;78.74;99091.75;8398865;28;19999;-70
2022/04/04 04:39:28;;;;;;;;;;;;;;;-0.08;78.51;99092.25;8397656;28;20390;-70
2022/04/04 04:43:29;;;;;;;;;;;;;;;-0.17;78.18;99086.53;8397257;28;19924;-70
2022/04/04 04:47:30;;;;;;;;;;;;;;;-0.19;77.98;99082.50;8362859;28;19928;-70
2022/04/04 04:51:30;;;;;;;;;;;;;;;-0.10;77.41;99087.16;8398379;28;19924;-71
2022/04/04 04:55:31;;;;;;;;;;;;;;;-0.09;77.01;99085.31;8395933;28;19935;-69
2022/04/04 04:59:32;;;;;;;;;;;;;;;0.00;76.45;99087.31;8398023;28;20005;-70
2022/04/04 05:03:34;;;;;;;;;;;;;;;0.04;76.14;99081.56;8397729;28;19927;-70
2022/04/04 05:07:34;;;;;;;;;;;;;;;0.07;76.04;99092.50;8397574;28;19965;-70
2022/04/04 05:11:35;;;;;;;;;;;;;;;0.30;75.37;99089.69;8397662;28;19920;-69
2022/04/04 05:15:39;;;;;;;;;;;;;;;0.40;75.14;99083.72;8397410;28;20364;-69
2022/04/04 05:19:40;;;;;;;;;;;;;;;0.48;74.25;99079.84;8397129;28;19920;-70
2022/04/04 05:23:41;;;;;;;;;;;;;;;0.63;74.07;99090.69;8397065;28;20307;-69
2022/04/04 05:27:43;;;;;;;;;;;;;;;0.65;73.84;99080.59;8396983;28;19920;-69
2022/04/04 05:31:45;;;;;;;;;;;;;;;0.67;73.40;99091.81;8396819;28;19982;-70
2022/04/04 05:35:46;;;;;;;;;;;;;;;0.81;73.24;99093.06;8396884;28;20151;-70
2022/04/04 05:39:47;;;;;;;;;;;;;;;0.85;73.27;99083.53;8396095;28;20316;-70
2022/04/04 05:43:47;;;;;;;;;;;;;;;0.88;73.34;99088.38;8396570;28;19947;-71
2022/04/04 05:47:48;;;;;;;;;;;;;;;0.94;73.56;99092.72;8394439;28;20016;-69
2022/04/04 05:51:49;;;;;;;;;;;;;;;1.14;72.47;99092.97;8399334;28;19939;-70
2022/04/04 05:55:50;;;;;;;;;;;;;;;1.16;71.92;99090.84;8397669;28;20018;-70
2022/04/04 05:59:51;;;;;;;;;;;;;;;1.26;72.40;99090.19;8395880;28;19920;-70
2022/04/04 06:03:51;;;;;;;;;;;;;;;1.33;72.41;99089.97;8395689;28;19921;-70
2022/04/04 06:07:52;;;;;;;;;;;;;;;1.47;72.00;99085.91;8393795;28;19924;-70
2022/04/04 06:11:53;;;;;;;;;;;;;;;1.65;71.42;99082.88;8395443;28;20085;-70
2022/04/04 06:15:54;;;;;;;;;;;;;;;1.87;70.36;99080.97;8395749;28;19999;-70
2022/04/04 06:19:56;;;;;;;;;;;;;;;1.95;70.23;99083.19;8395107;28;20276;-70
2022/04/04 06:23:56;;;;;;;;;;;;;;;2.10;70.45;99080.66;8395526;28;19927;-70
2022/04/04 06:27:58;;;;;;;;;;;;;;;2.20;69.37;99084.44;8393237;28;20007;-70
2022/04/04 06:31:59;;;;;;;;;;;;;;;2.23;69.55;99078.59;8395565;28;19927;-70
2022/04/04 06:36:00;;;;;;;;;;;;;;;2.22;69.82;99079.66;8359871;28;19924;-70
2022/04/04 06:40:02;;;;;;;;;;;;;;;2.38;69.19;99078.72;8395196;28;19920;-69
2022/04/04 06:44:03;;;;;;;;;;;;;;;2.44;70.07;99064.34;8394931;28;19924;-70
2022/04/04 06:48:04;;;;;;;;;;;;;;;2.53;69.69;99057.50;8394975;28;19920;-70
2022/04/04 06:52:05;;;;;;;;;;;;;;;2.73;69.06;99070.94;8391058;28;19931;-71
2022/04/04 06:56:06;;;;;;;;;;;;;;;2.86;68.98;99062.47;8406679;28;19926;-70
2022/04/04 07:00:08;;;;;;;;;;;;;;;2.98;68.30;99060.41;8392823;28;19928;-70
2022/04/04 07:04:10;;;;;;;;;;;;;;;3.09;68.32;99057.78;8390820;28;20271;-70
2022/04/04 07:08:10;;;;;;;;;;;;;;;3.23;67.45;99053.53;8394542;28;19927;-70
2022/04/04 07:12:11;;;;;;;;;;;;;;;3.25;67.71;99048.75;8394548;28;19920;-71
2022/04/04 07:16:12;;;;;;;;;;;;;;;3.31;67.33;99055.72;8359049;28;20019;-70
2022/04/04 07:20:13;;;;;;;;;;;;;;;3.51;66.84;99047.75;8394660;28;20399;-70
2022/04/04 07:24:13;;;;;;;;;;;;;;;3.76;66.55;99050.47;8394306;28;20023;-71
2022/04/04 07:28:14;;;;;;;;;;;;;;;3.83;66.13;99028.84;8394392;28;20019;-70
2022/04/04 07:32:15;;;;;;;;;;;;;;;3.96;65.32;99032.88;8391950;28;19963;-70
2022/04/04 07:36:17;;;;;;;;;;;;;;;4.08;65.74;99036.06;8394165;28;20383;-70
2022/04/04 07:40:18;;;;;;;;;;;;;;;4.23;64.75;99018.13;8394032;28;20015;-70
2022/04/04 07:44:19;;;;;;;;;;;;;;;4.34;64.19;99021.59;8394095;28;19920;-71
2022/04/04 07:48:20;;;;;;;;;;;;;;;4.37;63.44;99018.41;8393940;28;20019;-71
2022/04/04 07:52:21;;;;;;;;;;;;;;;4.47;63.03;99006.88;8394062;28;19927;-71
2022/04/04 07:56:23;;;;;;;;;;;;;;;4.57;62.80;99013.00;8394279;28;19924;-70
2022/04/04 08:00:24;;;;;;;;;;;;;;;4.78;62.01;99007.59;8393663;28;19920;-70
2022/04/04 08:04:25;;;;;;;;;;;;;;;5.00;61.00;99000.00;8399518;28;19921;-71
2022/04/04 08:08:26;;;;;;;;;;;;;;;5.01;60.55;98996.25;8399394;28;19951;-70
2022/04/04 08:12:28;;;;;;;;;;;;;;;5.03;59.89;98988.75;8399674;28;20390;-70
2022/04/04 08:16:29;;;;;;;;;;;;;;;5.16;59.30;98988.16;8399476;28;19947;-70
2022/04/04 08:20:34;;;;;;;;;;;;;;;5.28;59.14;98985.94;8413579;28;19920;-70
2022/04/04 08:24:35;;;;;;;;;;;;;;;5.51;58.72;98974.53;8399001;28;20011;-70
2022/04/04 08:28:35;;;;;;;;;;;;;;;5.63;56.30;98965.34;8399250;28;19927;-71
2022/04/04 08:32:37;;;;;;;;;;;;;;;5.75;57.40;98973.84;8398854;28;20398;-70
2022/04/04 08:36:37;;;;;;;;;;;;;;;6.07;56.02;98968.78;8398818;28;19971;-71
2022/04/04 08:40:38;;;;;;;;;;;;;;;6.35;53.09;98999.31;8398713;28;19974;-71
2022/04/04 08:44:39;;;;;;;;;;;;;;;6.06;51.99;98958.31;8398276;28;20318;-72
2022/04/04 08:48:42;;;;;;;;;;;;;;;6.08;50.57;98962.31;8398334;28;20023;-70
2022/04/04 08:52:45;;;;;;;;;;;;;;;6.24;51.69;98961.06;8398128;28;19928;-71
2022/04/04 08:56:46;;;;;;;;;;;;;;;6.43;51.31;98952.31;8398098;28;19920;-70
2022/04/04 09:00:47;;;;;;;;;;;;;;;6.26;52.05;98940.16;8398085;28;20380;-71
2022/04/04 09:04:51;;;;;;;;;;;;;;;6.05;52.59;98941.44;8397804;28;19927;-71
2022/04/04 09:08:52;;;;;;;;;;;;;;;6.06;51.02;98921.59;8397584;28;19920;-70
2022/04/04 09:12:53;;;;;;;;;;;;;;;6.35;49.97;98922.34;8378618;28;20302;-71
2022/04/04 09:16:55;;;;;;;;;;;;;;;6.51;48.52;98916.78;8396415;28;19952;-71
2022/04/04 09:20:56;;;;;;;;;;;;;;;6.74;49.45;98910.63;8397414;28;20423;-70
2022/04/04 09:24:57;;;;;;;;;;;;;;;7.14;49.51;98904.69;8395341;28;19920;-71
2022/04/04 09:28:59;;;;;;;;;;;;;;;7.03;49.20;98892.50;8395839;28;19931;-69
2022/04/04 09:33:02;;;;;;;;;;;;;;;7.06;50.45;98888.44;8396717;28;19949;-70
2022/04/04 09:37:03;;;;;;;;;;;;;;;7.21;47.16;98883.63;8396707;28;19920;-70
2022/04/04 09:41:13;;;;;;;;;;;;;;;7.36;46.39;98873.75;8396563;28;19921;-72
2022/04/04 09:45:15;;;;;;;;;;;;;;;7.22;46.34;98869.13;8396332;28;20292;-71
2022/04/04 09:49:17;;;;;;;;;;;;;;;6.85;47.02;98858.41;8396460;28;19960;-70
2022/04/04 09:53:19;;;;;;;;;;;;;;;6.57;47.63;98840.53;8396384;28;20425;-71
2022/04/04 09:57:20;;;;;;;;;;;;;;;6.72;48.33;98843.81;8396086;28;20388;-71
2022/04/04 10:01:21;;;;;;;;;;;;;;;7.04;47.52;98835.03;8396458;28;20363;-71
2022/04/04 10:05:23;;;;;;;;;;;;;;;7.58;45.80;98833.63;8402808;28;19920;-71
2022/04/04 10:09:24;;;;;;;;;;;;;;;7.82;44.05;98818.13;8400471;28;19955;-72
2022/04/04 10:13:25;;;;;;;;;;;;;;;7.64;45.12;98813.63;8395774;28;20338;-71
2022/04/04 10:17:29;;;;;;;;;;;;;;;7.55;44.43;98812.72;8395804;28;19924;-71
2022/04/04 10:21:30;;;;;;;;;;;;;;;7.50;45.27;98794.00;8377520;28;20333;-70
2022/04/04 10:25:33;;;;;;;;;;;;;;;7.80;43.81;98792.63;8393895;28;19920;-71
2022/04/04 10:29:38;;;;;;;;;;;;;;;7.56;43.85;98798.19;8393196;28;19927;-71
2022/04/04 10:33:39;;;;;;;;;;;;;;;7.40;45.21;98778.06;8395406;28;19927;-71
2022/04/04 10:37:43;;;;;;;;;;;;;;;7.55;44.66;98769.72;8394939;28;19967;-71
2022/04/04 10:41:44;;;;;;;;;;;;;;;7.40;44.40;98764.63;8391313;28;20307;-71
2022/04/04 10:45:52;;;;;;;;;;;;;;;7.33;44.56;98756.16;8388123;28;19920;-70
2022/04/04 10:49:57;;;;;;;;;;;;;;;7.70;43.65;98761.38;8393167;28;20171;-69
2022/04/04 10:54:07;;;;;;;;;;;;;;;7.96;43.69;98737.47;8393029;28;19924;-69
2022/04/04 10:58:12;;;;;;;;;;;;;;;8.01;42.93;98746.22;8393088;28;19943;-70
2022/04/04 11:02:19;;;;;;;;;;;;;;;8.55;42.40;98728.41;8391520;28;20268;-69
2022/04/04 11:10:54;;;;;;;;;;;;;;;8.66;41.83;98713.63;8394606;28;19926;-71
2022/04/04 11:15:03;;;;;;;;;;;;;;;8.42;42.47;98699.63;8393493;28;19921;-72
2022/04/04 11:19:09;;;;;;;;;;;;;;;8.76;42.52;98691.84;8394605;28;20299;-71
2022/04/04 11:23:11;;;;;;;;;;;;;;;8.52;41.25;98685.94;8394267;28;20295;-72
2022/04/04 11:27:11;;;;;;;;;;;;;;;8.12;42.40;98676.88;8393337;28;20012;-71
2022/04/04 11:31:13;;;;;;;;;;;;;;;8.12;42.81;98676.09;8394225;28;19924;-71
2022/04/04 11:35:14;;;;;;;;;;;;;;;8.00;42.72;98669.34;8394467;28;20058;-72
2022/04/04 11:39:16;;;;;;;;;;;;;;;7.95;41.64;98665.97;8399545;28;19920;-71
2022/04/04 11:43:17;;;;;;;;;;;;;;;7.93;41.54;98663.56;8400943;28;19973;-71
2022/04/04 11:47:18;;;;;;;;;;;;;;;7.85;41.99;98642.78;8400205;28;19921;-72
2022/04/04 11:51:20;;;;;;;;;;;;;;;7.63;42.86;98637.34;8400258;28;19925;-71
2022/04/04 11:55:22;;;;;;;;;;;;;;;7.54;42.91;98644.53;8399948;28;19921;-71
2022/04/04 11:59:27;;;;;;;;;;;;;;;7.49;41.99;98636.56;8398075;28;19924;-71
2022/04/04 12:03:28;;;;;;;;;;;;;;;7.31;41.85;98624.03;8381040;28;19921;-72
2022/04/04 12:07:32;;;;;;;;;;;;;;;7.29;42.74;98610.09;8398650;28;19924;-70
2022/04/04 12:11:33;;;;;;;;;;;;;;;7.17;43.07;98587.22;8401352;28;19921;-71
2022/04/04 12:15:37;;;;;;;;;;;;;;;7.45;42.57;98587.22;8403375;28;19960;-70
2022/04/04 12:19:42;;;;;;;;;;;;;;;7.67;41.29;98584.56;8399961;28;20387;-71
2022/04/04 12:28:07;;;;;;;;;;;;;;;7.90;40.74;98556.66;8399050;28;19924;-71
2022/04/04 12:32:18;;;;;;;;;;;;;;;8.50;40.17;98553.59;8396973;28;19928;-71
2022/04/04 12:36:29;;;;;;;;;;;;;;;8.29;38.95;98541.75;8394942;28;20074;-71
2022/04/04 12:40:30;;;;;;;;;;;;;;;7.93;39.08;98529.13;8394737;28;19970;-70
2022/04/04 12:44:32;;;;;;;;;;;;;;;7.91;38.89;98525.97;8394812;28;19921;-72
2022/04/04 12:48:34;;;;;;;;;;;;;;;8.17;39.17;98501.16;8394134;28;20015;-71
2022/04/04 12:52:34;;;;;;;;;;;;;;;8.16;38.99;98510.31;8377473;28;20019;-71
2022/04/04 12:56:48;;;;;;;;;;;;;;;8.44;38.35;98490.25;8377183;28;19920;-71
2022/04/04 13:00:50;;;;;;;;;;;;;;;8.86;37.41;98491.53;8393774;28;19962;-70
2022/04/04 13:05:00;;;;;;;;;;;;;;;9.29;36.91;98462.81;8394018;28;19928;-70
2022/04/04 13:09:02;;;;;;;;;;;;;;;9.25;35.88;98466.44;8397426;28;20330;-70
2022/04/04 13:13:09;;;;;;;;;;;;;;;9.19;36.34;98455.03;8397481;28;19947;-71
2022/04/04 13:17:10;;;;;;;;;;;;;;;9.38;35.33;98449.31;8397532;28;19920;-70
2022/04/04 13:21:13;;;;;;;;;;;;;;;9.20;35.35;98453.13;8397569;28;20302;-70
2022/04/04 13:25:14;;;;;;;;;;;;;;;9.16;35.46;98435.97;8397137;28;19920;-70
2022/04/04 13:29:18;;;;;;;;;;;;;;;9.85;35.17;98419.78;8395095;28;19970;-70
2022/04/04 13:33:19;;;;;;;;;;;;;;;10.23;34.11;98409.88;8396952;28;19920;-70
2022/04/04 13:37:20;;;;;;;;;;;;;;;10.34;33.92;98384.13;8394590;28;19920;-70
2022/04/04 13:41:23;;;;;;;;;;;;;;;11.04;33.47;98377.22;8394633;28;20009;-71
2022/04/04 13:45:27;;;;;;;;;;;;;;;11.23;32.45;98364.03;8395388;28;19921;-71
2022/04/04 13:49:31;;;;;;;;;;;;;;;10.18;33.07;98369.59;8396640;28;19920;-70
2022/04/04 13:53:35;;;;;;;;;;;;;;;10.81;31.75;98365.13;8385795;28;20379;-71
2022/04/04 13:57:36;;;;;;;;;;;;;;;10.86;32.86;98335.22;8353076;28;20335;-71
2022/04/04 14:01:37;;;;;;;;;;;;;;;11.90;29.91;98327.75;8395196;28;19967;-71
2022/04/04 14:05:40;;;;;;;;;;;;;;;11.42;30.82;98315.66;8371537;28;19920;-71
2022/04/04 14:09:42;;;;;;;;;;;;;;;12.31;29.23;98307.06;8395956;28;19924;-72
2022/04/04 14:13:47;;;;;;;;;;;;;;;11.54;29.81;98306.03;8395195;28;19931;-71
2022/04/04 14:17:47;;;;;;;;;;;;;;;10.61;30.15;98274.91;8395675;28;19997;-70
2022/04/04 14:21:48;;;;;;;;;;;;;;;11.35;29.39;98266.78;8394528;28;19920;-70
2022/04/04 14:25:50;;;;;;;;;;;;;;;11.90;28.23;98270.94;8391089;28;20431;-70
2022/04/04 14:29:52;;;;;;;;;;;;;;;12.35;27.65;98253.81;8395235;28;20010;-71
2022/04/04 14:33:56;;;;;;;;;;;;;;;12.57;28.41;98239.78;8393929;28;19924;-70
2022/04/04 14:37:57;;;;;;;;;;;;;;;13.09;27.62;98245.91;8372881;28;19974;-71
2022/04/04 14:41:58;;;;;;;;;;;;;;;12.65;27.13;98230.72;8367728;28;19920;-70
2022/04/04 14:45:59;;;;;;;;;;;;;;;11.65;29.08;98215.22;8395095;28;19920;-70
2022/04/04 14:50:00;;;;;;;;;;;;;;;11.95;28.05;98219.31;8386148;28;19920;-72
2022/04/04 14:54:01;;;;;;;;;;;;;;;11.46;28.54;98223.09;8393224;28;19931;-71
2022/04/04 14:58:06;;;;;;;;;;;;;;;10.93;29.21;98205.84;8394636;28;19929;-70
2022/04/04 15:02:08;;;;;;;;;;;;;;;10.41;30.15;98208.97;8374036;28;19920;-71
2022/04/04 15:06:09;;;;;;;;;;;;;;;9.80;31.48;98185.38;8393547;28;19920;-71
2022/04/04 15:10:16;;;;;;;;;;;;;;;9.40;31.81;98188.41;8392575;28;19931;-70
2022/04/04 15:14:17;;;;;;;;;;;;;;;8.97;32.31;98168.88;8381950;28;19925;-70
2022/04/04 15:18:21;;;;;;;;;;;;;;;8.63;32.76;98181.28;8394661;28;19927;-70
2022/04/04 15:22:23;;;;;;;;;;;;;;;8.36;32.42;98149.31;8379804;28;20368;-71
2022/04/04 15:26:24;;;;;;;;;;;;;;;8.36;33.45;98165.47;8396108;28;20019;-70
2022/04/04 15:30:25;;;;;;;;;;;;;;;8.45;33.46;98136.69;8400137;28;19924;-70
2022/04/04 15:34:25;;;;;;;;;;;;;;;8.31;33.56;98144.09;8400338;28;19977;-71
2022/04/04 15:38:26;;;;;;;;;;;;;;;8.25;33.06;98137.28;8399666;28;20407;-71
2022/04/04 15:42:27;;;;;;;;;;;;;;;8.22;33.15;98127.94;8399451;28;20354;-72
2022/04/04 15:46:31;;;;;;;;;;;;;;;8.12;33.64;98127.47;8394844;28;19924;-71
2022/04/04 15:50:32;;;;;;;;;;;;;;;7.99;34.48;98119.22;8399482;28;19975;-72
2022/04/04 15:54:34;;;;;;;;;;;;;;;7.89;34.49;98103.41;8399146;28;19924;-70
2022/04/04 15:58:35;;;;;;;;;;;;;;;7.82;34.24;98097.72;8398941;28;19928;-70
2022/04/04 16:02:36;;;;;;;;;;;;;;;7.71;34.43;98096.44;8395650;28;19978;-71
2022/04/04 16:06:38;;;;;;;;;;;;;;;7.64;34.57;98096.09;8406001;28;19943;-70
2022/04/04 16:10:39;;;;;;;;;;;;;;;7.58;34.93;98091.97;8398464;28;19920;-71
2022/04/04 16:14:40;;;;;;;;;;;;;;;7.56;35.36;98083.47;8409456;28;19986;-72
2022/04/04 16:18:41;;;;;;;;;;;;;;;7.42;35.92;98085.47;8411944;28;19924;-71
2022/04/04 16:22:43;;;;;;;;;;;;;;;7.44;34.97;98077.91;8396658;28;20388;-71
2022/04/04 16:26:45;;;;;;;;;;;;;;;7.36;35.21;98078.66;8398453;28;19920;-70
2022/04/04 16:30:47;;;;;;;;;;;;;;;7.37;35.10;98069.50;8395462;28;20380;-70
2022/04/04 16:34:48;;;;;;;;;;;;;;;7.20;35.85;98071.03;8418986;28;19950;-71
2022/04/04 16:38:49;;;;;;;;;;;;;;;7.19;35.64;98064.06;8416708;28;20023;-71
2022/04/04 16:42:50;;;;;;;;;;;;;;;7.16;35.76;98056.66;8397188;28;20367;-71
2022/04/04 16:46:51;;;;;;;;;;;;;;;7.14;36.37;98056.16;8391655;28;20291;-71
2022/04/04 16:50:52;;;;;;;;;;;;;;;6.96;37.15;98059.91;8397900;28;20375;-71
2022/04/04 16:54:53;;;;;;;;;;;;;;;6.97;36.25;98023.91;8397784;28;19920;-71
2022/04/04 16:58:54;;;;;;;;;;;;;;;6.86;36.48;98022.63;8396098;28;19920;-71
2022/04/04 17:02:56;;;;;;;;;;;;;;;6.80;36.70;98013.13;8398228;28;19924;-70
2022/04/04 17:06:57;;;;;;;;;;;;;;;6.76;36.85;98012.94;8395334;28;19943;-70
2022/04/04 17:11:00;;;;;;;;;;;;;;;6.71;37.27;98009.63;8397636;28;19956;-70
2022/04/04 17:15:01;;;;;;;;;;;;;;;6.76;37.21;98006.78;8397130;28;19927;-70
2022/04/04 17:19:02;;;;;;;;;;;;;;;6.77;36.80;98002.97;8393431;28;19932;-70
2022/04/04 17:23:03;;;;;;;;;;;;;;;6.73;37.38;98007.41;8396695;28;19920;-70
2022/04/04 17:27:05;;;;;;;;;;;;;;;6.73;37.19;97996.66;8397671;28;19924;-71
2022/04/04 17:31:09;;;;;;;;;;;;;;;6.66;37.14;97996.34;8397196;28;19920;-70
2022/04/04 17:35:10;;;;;;;;;;;;;;;6.57;37.74;97998.16;8410512;28;19920;-70
2022/04/04 17:39:11;;;;;;;;;;;;;;;6.46;38.20;97996.84;8397242;28;19928;-70
2022/04/04 17:43:12;;;;;;;;;;;;;;;6.51;37.90;97999.41;8395579;28;19921;-71
2022/04/04 17:47:13;;;;;;;;;;;;;;;6.44;38.17;97993.72;8411744;28;19921;-71
2022/04/04 17:51:14;;;;;;;;;;;;;;;6.41;38.77;97984.38;8394831;28;19921;-71
2022/04/04 17:55:15;;;;;;;;;;;;;;;6.39;39.12;97969.72;8393826;28;19947;-71
2022/04/04 17:59:17;;;;;;;;;;;;;;;6.34;39.30;97967.97;8397827;28;20646;-70
2022/04/04 18:03:17;;;;;;;;;;;;;;;6.25;39.47;97959.84;8397168;28;19924;-70
2022/04/04 18:07:19;;;;;;;;;;;;;;;6.26;39.84;97966.81;8391206;28;20027;-70
2022/04/04 18:11:19;;;;;;;;;;;;;;;6.36;39.97;97977.25;8394906;28;19920;-70
2022/04/04 18:15:23;;;;;;;;;;;;;;;6.26;40.32;97961.44;8394615;28;19920;-70
2022/04/04 18:19:26;;;;;;;;;;;;;;;6.30;40.30;97967.75;8392124;28;20003;-70
2022/04/04 18:23:27;;;;;;;;;;;;;;;6.19;40.44;97947.66;8392419;28;20037;-70
2022/04/04 18:27:29;;;;;;;;;;;;;;;6.25;40.36;97970.56;8394498;28;19920;-70
2022/04/04 18:31:33;;;;;;;;;;;;;;;6.30;40.02;97965.06;8393050;28;19928;-71
2022/04/04 18:35:35;;;;;;;;;;;;;;;6.22;40.85;97963.16;8390930;28;19959;-69
2022/04/04 18:39:39;;;;;;;;;;;;;;;6.21;40.78;97964.25;8391722;28;20333;-71
2022/04/04 18:43:40;;;;;;;;;;;;;;;6.18;41.89;97954.16;8394160;28;19920;-70
2022/04/04 18:47:43;;;;;;;;;;;;;;;6.01;43.80;97959.41;8391744;28;19962;-70
2022/04/04 18:51:44;;;;;;;;;;;;;;;5.88;44.41;97949.53;8390679;28;20287;-70
2022/04/04 18:55:45;;;;;;;;;;;;;;;5.79;45.93;97951.34;8391332;28;19927;-70
2022/04/04 18:59:46;;;;;;;;;;;;;;;5.70;46.66;97958.56;8397524;28;19999;-70
2022/04/04 19:03:47;;;;;;;;;;;;;;;5.62;48.15;97951.22;8411395;28;19951;-71
2022/04/04 19:07:48;;;;;;;;;;;;;;;5.61;49.38;97949.63;8394807;28;19924;-70
2022/04/04 19:11:49;;;;;;;;;;;;;;;5.49;49.82;97963.59;8391115;28;19927;-71
2022/04/04 19:15:51;;;;;;;;;;;;;;;5.32;50.47;97948.16;8417656;28;19927;-70
2022/04/04 19:19:53;;;;;;;;;;;;;;;5.33;51.57;97955.13;8392093;28;19924;-70
2022/04/04 19:23:55;;;;;;;;;;;;;;;5.27;54.60;97950.97;8405118;28;19920;-70
2022/04/04 19:27:57;;;;;;;;;;;;;;;4.96;57.56;97950.03;8393740;28;20192;-70
2022/04/04 19:32:03;;;;;;;;;;;;;;;4.77;60.02;97942.13;8393305;28;19920;-70
2022/04/04 19:36:04;;;;;;;;;;;;;;;4.57;63.68;97943.34;8390318;28;20414;-70
2022/04/04 19:40:08;;;;;;;;;;;;;;;4.28;66.01;97932.16;8358976;28;19921;-70
2022/04/04 19:44:10;;;;;;;;;;;;;;;4.13;68.54;97927.84;8393219;28;19920;-70
2022/04/04 19:48:12;;;;;;;;;;;;;;;3.93;71.33;97922.09;8392087;28;19921;-70
2022/04/04 19:52:13;;;;;;;;;;;;;;;3.65;74.01;97911.34;8393428;28;20041;-71
2022/04/04 19:56:14;;;;;;;;;;;;;;;3.62;75.94;97901.25;8392413;28;19950;-70
2022/04/04 20:00:17;;;;;;;;;;;;;;;3.35;77.62;97893.16;8397839;28;19927;-71
2022/04/04 20:04:19;;;;;;;;;;;;;;;3.01;80.21;97889.97;8399630;28;19920;-70
2022/04/04 20:08:20;;;;;;;;;;;;;;;2.92;81.53;97877.25;8398772;28;19931;-71
2022/04/04 20:12:21;;;;;;;;;;;;;;;2.55;83.26;97877.22;8396938;28;19924;-71
2022/04/04 20:16:23;;;;;;;;;;;;;;;2.29;84.14;97874.09;8396145;28;20041;-71
2022/04/04 20:20:23;;;;;;;;;;;;;;;2.16;84.87;97874.00;8398302;28;19920;-71
2022/04/04 20:24:26;;;;;;;;;;;;;;;1.99;86.38;97875.22;8397985;28;19935;-70
2022/04/04 20:28:30;;;;;;;;;;;;;;;1.88;87.29;97852.47;8398815;28;20348;-71
2022/04/04 20:32:33;;;;;;;;;;;;;;;1.77;88.71;97861.63;8398146;28;20054;-70
2022/04/04 20:36:36;;;;;;;;;;;;;;;1.89;88.01;97859.38;8396319;28;19926;-71
2022/04/04 20:40:37;;;;;;;;;;;;;;;1.70;89.05;97850.50;8398641;28;19924;-71
2022/04/04 20:44:38;;;;;;;;;;;;;;;1.64;89.67;97835.66;8397809;28;19924;-70
2022/04/04 20:48:44;;;;;;;;;;;;;;;1.54;90.89;97835.75;8398766;28;20388;-70
2022/04/04 20:52:45;;;;;;;;;;;;;;;1.59;91.02;97838.38;8398328;28;20414;-70
2022/04/04 20:56:46;;;;;;;;;;;;;;;1.60;91.68;97818.66;8398178;28;20383;-70
2022/04/04 21:00:47;;;;;;;;;;;;;;;1.55;91.54;97816.84;8397607;28;19931;-70
2022/04/04 21:04:48;;;;;;;;;;;;;;;1.63;92.12;97813.59;8398116;28;19924;-70
2022/04/04 21:08:51;;;;;;;;;;;;;;;1.57;91.97;97803.28;8396797;28;20348;-70
2022/04/04 21:12:55;;;;;;;;;;;;;;;1.57;92.58;97800.63;8394739;28;19920;-70
2022/04/04 21:16:58;;;;;;;;;;;;;;;1.81;92.09;97809.41;8392948;28;20035;-70
2022/04/04 21:20:59;;;;;;;;;;;;;;;1.76;92.33;97790.81;8344172;28;19920;-70